Time;durP1;ratioP1;P1;durP2;ratioP2;P2;SDS_P1;SDS_P2;PMS_P1;PMS_P2;Temp;Humidity;BMP_temperature;BMP_pressure;BME280_temperature;BME280_humidity;BME280_pressure;Samples;Min_cycle;Max_cycle;Signal;HPM_P1;HPM_P2
2024/03/10 00:01:45;;;;;;;26.17;23.20;;;;;;;9.40;67.02;96516.06;5072623;28;20107;-76
2024/03/10 00:04:12;;;;;;;26.75;23.85;;;;;;;9.36;67.35;96512.31;5092586;28;20486;-76
2024/03/10 00:06:37;;;;;;;22.73;20.33;;;;;;;9.51;67.29;96525.66;5076125;28;20069;-76
2024/03/10 00:09:03;;;;;;;27.15;24.17;;;;;;;9.70;66.30;96497.03;5075407;28;20040;-76
2024/03/10 00:11:28;;;;;;;27.13;24.08;;;;;;;9.64;66.64;96514.28;5071563;28;20028;-75
2024/03/10 00:13:55;;;;;;;25.60;22.83;;;;;;;9.25;68.00;96502.69;5075001;28;20040;-76
2024/03/10 00:16:20;;;;;;;24.38;21.75;;;;;;;9.24;67.83;96484.19;5074693;28;20021;-76
2024/03/10 00:18:46;;;;;;;26.83;22.00;;;;;;;9.44;67.39;96476.81;5074306;28;20608;-75
2024/03/10 00:21:11;;;;;;;23.88;20.58;;;;;;;9.67;66.24;96494.91;5088885;28;20054;-75
2024/03/10 00:23:37;;;;;;;23.63;21.10;;;;;;;9.52;66.00;96478.88;5034520;28;20078;-75
2024/03/10 00:26:05;;;;;;;23.05;19.85;;;;;;;9.60;66.37;96496.28;5075739;28;20478;-75
2024/03/10 00:28:32;;;;;;;25.70;22.10;;;;;;;9.69;65.89;96483.88;5072778;28;20040;-76
2024/03/10 00:30:57;;;;;;;22.70;20.23;;;;;;;9.77;66.12;96495.91;5073722;28;20066;-76
2024/03/10 00:33:22;;;;;;;23.50;20.23;;;;;;;9.73;65.58;96469.59;5058821;28;20036;-76
2024/03/10 00:35:48;;;;;;;21.52;19.13;;;;;;;9.91;65.09;96481.56;5057712;28;20391;-76
2024/03/10 00:38:14;;;;;;;22.30;19.77;;;;;;;9.89;64.69;96472.16;5070396;28;20096;-75
2024/03/10 00:40:39;;;;;;;22.27;19.98;;;;;;;9.80;65.15;96479.22;5070032;28;20032;-75
2024/03/10 00:43:04;;;;;;;22.35;19.92;;;;;;;9.84;65.24;96481.06;5075187;28;20034;-75
2024/03/10 00:45:30;;;;;;;23.38;20.88;;;;;;;9.83;65.09;96467.88;5093789;28;20070;-77
2024/03/10 00:47:55;;;;;;;23.05;20.55;;;;;;;9.79;65.27;96467.66;5043779;28;20111;-75
2024/03/10 00:50:21;;;;;;;23.75;21.23;;;;;;;9.79;65.12;96456.09;5055572;28;20524;-75
2024/03/10 00:52:47;;;;;;;21.98;19.42;;;;;;;9.80;64.56;96458.53;5073626;28;20115;-76
2024/03/10 00:55:13;;;;;;;22.92;20.08;;;;;;;9.88;65.24;96470.53;5074589;28;20470;-74
2024/03/10 00:57:38;;;;;;;22.63;20.20;;;;;;;9.89;64.90;96464.91;5075317;28;20032;-76
2024/03/10 01:00:09;;;;;;;23.90;20.85;;;;;;;9.78;64.91;96466.03;5065342;28;20032;-76
2024/03/10 01:02:34;;;;;;;25.25;21.77;;;;;;;9.70;65.22;96453.22;5058566;28;20032;-76
2024/03/10 01:04:59;;;;;;;24.13;21.45;;;;;;;9.74;64.99;96465.00;5051582;28;20103;-76
2024/03/10 01:07:25;;;;;;;22.20;19.80;;;;;;;9.61;64.93;96439.56;5055045;28;20085;-75
2024/03/10 01:09:50;;;;;;;22.25;19.90;;;;;;;9.49;64.68;96431.09;5074643;28;20082;-76
2024/03/10 01:12:16;;;;;;;23.60;20.77;;;;;;;9.87;64.76;96485.09;5055239;28;20471;-76
2024/03/10 01:14:42;;;;;;;25.50;21.63;;;;;;;9.86;64.75;96486.16;5063210;28;20514;-77
2024/03/10 01:17:08;;;;;;;24.48;20.95;;;;;;;9.67;65.24;96465.34;5057269;28;20038;-76
2024/03/10 01:19:37;;;;;;;23.45;20.95;;;;;;;9.74;64.57;96465.81;5075468;28;20028;-76
2024/03/10 01:22:03;;;;;;;23.30;20.80;;;;;;;9.57;65.11;96443.91;5063722;28;20407;-76
2024/03/10 01:24:28;;;;;;;23.15;20.65;;;;;;;9.70;64.94;96470.16;5071407;28;20035;-76
2024/03/10 01:26:54;;;;;;;24.58;21.92;;;;;;;9.59;65.27;96455.19;5074854;28;20043;-75
2024/03/10 01:29:19;;;;;;;23.50;21.00;;;;;;;9.70;64.90;96474.72;5061944;28;20048;-75
2024/03/10 01:31:44;;;;;;;23.55;20.73;;;;;;;9.44;65.12;96433.81;5073979;28;20467;-76
2024/03/10 01:34:10;;;;;;;23.63;21.13;;;;;;;9.51;65.51;96485.34;5084548;28;20547;-76
2024/03/10 01:36:35;;;;;;;27.00;24.02;;;;;;;9.49;65.17;96430.28;5051778;28;20038;-76
2024/03/10 01:39:01;;;;;;;28.30;24.30;;;;;;;9.49;65.79;96473.28;5068573;28;20065;-76
2024/03/10 01:41:27;;;;;;;29.08;25.98;;;;;;;9.25;65.91;96435.56;5064349;28;20488;-75
2024/03/10 01:43:52;;;;;;;31.83;26.98;;;;;;;9.16;66.41;96441.78;5073643;28;20028;-75
2024/03/10 01:46:17;;;;;;;26.90;23.67;;;;;;;9.28;66.38;96461.88;5055297;28;20419;-75
2024/03/10 01:48:46;;;;;;;29.88;25.73;;;;;;;9.07;66.77;96448.81;5076506;28;20027;-76
2024/03/10 01:51:15;;;;;;;33.15;28.33;;;;;;;8.95;67.34;96441.09;5068674;28;20044;-76
2024/03/10 01:53:42;;;;;;;30.23;26.92;;;;;;;8.95;67.42;96465.28;5074591;28;20019;-76
2024/03/10 01:56:09;;;;;;;31.80;28.40;;;;;;;8.85;67.64;96451.88;5074402;28;20456;-77
2024/03/10 01:58:36;;;;;;;32.13;28.65;;;;;;;8.83;67.92;96449.50;5068651;28;20023;-76
2024/03/10 02:01:03;;;;;;;32.60;29.00;;;;;;;8.75;68.04;96463.47;5065684;28;20046;-76
2024/03/10 02:03:29;;;;;;;32.78;29.27;;;;;;;8.65;68.54;96446.63;5068495;28;20070;-75
2024/03/10 02:05:54;;;;;;;31.92;28.52;;;;;;;8.45;68.78;96435.97;5073187;28;20502;-75
2024/03/10 02:08:20;;;;;;;34.80;30.50;;;;;;;8.47;68.53;96439.97;5053411;28;20021;-76
2024/03/10 02:10:48;;;;;;;31.70;28.27;;;;;;;8.39;68.94;96445.09;5071680;28;20109;-76
2024/03/10 02:13:15;;;;;;;32.65;29.13;;;;;;;8.35;68.87;96440.28;5073346;28;20024;-76
2024/03/10 02:15:44;;;;;;;35.95;29.88;;;;;;;8.20;68.56;96429.56;5051868;28;20376;-76
2024/03/10 02:18:12;;;;;;;34.15;30.38;;;;;;;8.17;69.17;96424.75;5073326;28;20024;-76
2024/03/10 02:20:38;;;;;;;33.45;29.80;;;;;;;8.16;68.42;96433.06;5070690;28;20050;-75
2024/03/10 02:23:04;;;;;;;34.28;30.60;;;;;;;8.19;69.61;96462.81;5091121;28;20023;-75
2024/03/10 02:25:39;;;;;;;33.05;29.55;;;;;;;8.17;69.66;96456.94;5053433;28;20032;-75
2024/03/10 02:28:09;;;;;;;32.47;28.97;;;;;;;8.15;69.25;96459.06;5044634;28;20062;-76
2024/03/10 02:30:55;;;;;;;32.97;29.33;;;;;;;8.13;69.94;96438.97;5057168;28;20040;-75
2024/03/10 02:47:12;;;;;;;33.67;30.00;;;;;;;8.07;69.50;96419.44;5073034;28;20467;-76
2024/03/10 02:49:38;;;;;;;33.28;29.45;;;;;;;8.19;69.21;96438.69;5067838;28;20039;-76
2024/03/10 02:52:05;;;;;;;33.80;30.02;;;;;;;8.09;69.10;96416.47;5080878;28;20032;-77
2024/03/10 02:54:30;;;;;;;35.47;30.15;;;;;;;8.10;69.74;96429.59;5065935;28;20074;-77
2024/03/10 02:56:55;;;;;;;35.65;31.50;;;;;;;8.02;68.95;96422.13;5073159;28;20086;-77
2024/03/10 02:59:21;;;;;;;34.92;30.33;;;;;;;8.05;69.60;96420.78;5027391;28;1435016;-77
2024/03/10 03:01:46;;;;;;;35.40;31.70;;;;;;;7.84;69.75;96397.78;5069671;28;20036;-77
2024/03/10 03:04:11;;;;;;;35.80;31.17;;;;;;;7.93;69.89;96410.34;5058419;28;20493;-77
2024/03/10 03:06:37;;;;;;;37.30;31.98;;;;;;;8.04;69.77;96409.25;5070232;28;20025;-77
2024/03/10 03:09:05;;;;;;;32.58;29.17;;;;;;;8.07;69.49;96414.06;5091847;28;20032;-76
2024/03/10 03:11:31;;;;;;;34.95;30.70;;;;;;;7.86;69.34;96379.53;5054007;28;20028;-77
2024/03/10 03:13:56;;;;;;;35.53;31.17;;;;;;;7.86;69.52;96401.78;5090318;28;20043;-76
2024/03/10 03:16:21;;;;;;;39.13;32.88;;;;;;;7.87;70.19;96413.28;5053181;28;20033;-76
2024/03/10 03:18:47;;;;;;;37.30;31.67;;;;;;;7.71;69.56;96404.47;5091103;28;20040;-78
2024/03/10 03:21:12;;;;;;;36.20;32.25;;;;;;;7.82;69.43;96410.63;5069888;28;20107;-77
2024/03/10 03:23:38;;;;;;;38.05;32.88;;;;;;;7.64;69.73;96398.59;5069425;28;20395;-77
2024/03/10 03:26:03;;;;;;;37.55;32.80;;;;;;;7.64;70.46;96399.41;5068305;28;20077;-78
2024/03/10 03:28:29;;;;;;;36.22;31.85;;;;;;;7.35;69.80;96346.66;5077391;28;20024;-78
2024/03/10 03:30:55;;;;;;;41.20;34.60;;;;;;;7.55;69.82;96384.13;5078619;28;20028;-78
2024/03/10 03:33:21;;;;;;;37.38;32.33;;;;;;;7.40;70.99;96376.91;5078966;28;20383;-78
2024/03/10 03:35:47;;;;;;;39.83;33.60;;;;;;;7.61;70.80;96399.13;5077833;28;20060;-78
2024/03/10 03:38:13;;;;;;;38.15;33.20;;;;;;;7.47;70.66;96387.34;5079693;28;20032;-78
2024/03/10 03:40:39;;;;;;;41.25;35.42;;;;;;;7.24;70.07;96369.13;5065780;28;20099;-78
2024/03/10 03:43:05;;;;;;;38.97;33.55;;;;;;;7.32;71.89;96384.69;5090475;28;20059;-77
2024/03/10 03:45:31;;;;;;;35.10;31.30;;;;;;;7.35;71.33;96410.94;5073066;28;20472;-77
2024/03/10 03:47:57;;;;;;;36.47;32.55;;;;;;;7.17;71.08;96363.25;5077757;28;20031;-77
2024/03/10 03:50:22;;;;;;;38.67;33.33;;;;;;;7.23;71.13;96387.09;5082631;28;20480;-76
2024/03/10 03:52:50;;;;;;;37.42;31.70;;;;;;;7.36;71.64;96401.81;5074275;28;20126;-76
2024/03/10 03:55:16;;;;;;;39.13;32.30;;;;;;;7.25;71.00;96368.09;5090358;28;20103;-76
2024/03/10 03:57:41;;;;;;;34.05;30.25;;;;;;;7.34;70.37;96387.88;5077689;28;20165;-76
2024/03/10 04:00:12;;;;;;;38.05;32.60;;;;;;;7.28;70.90;96375.59;5067507;28;22204;-77
2024/03/10 04:02:40;;;;;;;36.17;32.25;;;;;;;7.22;70.94;96384.66;5062636;28;20032;-77
2024/03/10 04:05:06;;;;;;;39.63;32.78;;;;;;;7.13;71.01;96375.56;5077770;28;20395;-78
2024/03/10 04:07:31;;;;;;;34.75;30.70;;;;;;;7.19;71.87;96390.59;5077781;28;20028;-77
2024/03/10 04:09:56;;;;;;;35.15;31.23;;;;;;;6.93;71.13;96329.00;5068664;28;20059;-78
2024/03/10 04:12:22;;;;;;;34.97;31.27;;;;;;;7.42;71.60;96411.47;5077314;28;20047;-77
2024/03/10 04:14:47;;;;;;;35.80;31.27;;;;;;;7.36;70.83;96365.13;5058300;28;20023;-76
2024/03/10 04:17:13;;;;;;;35.35;31.10;;;;;;;7.20;71.44;96366.22;5084184;28;20032;-77
2024/03/10 04:19:38;;;;;;;38.22;32.17;;;;;;;7.28;71.36;96383.63;5057190;28;20021;-77
2024/03/10 04:22:09;;;;;;;34.75;30.50;;;;;;;7.29;71.10;96371.81;5059640;28;20135;-76
2024/03/10 04:24:36;;;;;;;34.75;29.50;;;;;;;7.41;71.40;96383.88;5088375;28;20036;-77
2024/03/10 04:27:01;;;;;;;34.03;30.42;;;;;;;7.53;70.79;96383.59;5054363;28;20024;-77
2024/03/10 04:29:27;;;;;;;33.55;29.70;;;;;;;7.36;71.22;96342.91;5088124;28;20036;-77
2024/03/10 04:31:52;;;;;;;35.97;31.10;;;;;;;7.42;71.41;96363.28;5070811;28;20028;-76
2024/03/10 04:34:18;;;;;;;35.08;30.42;;;;;;;7.38;70.55;96351.47;5059393;28;20056;-77
2024/03/10 04:36:43;;;;;;;36.38;31.42;;;;;;;7.34;70.67;96337.03;5063321;28;20383;-77
2024/03/10 04:39:12;;;;;;;33.33;29.73;;;;;;;7.47;70.25;96355.19;5070104;28;20433;-78
2024/03/10 04:41:37;;;;;;;35.35;30.58;;;;;;;7.59;70.67;96353.84;5071589;28;20051;-77
2024/03/10 04:44:03;;;;;;;35.67;31.45;;;;;;;7.39;70.37;96342.38;5074558;28;20058;-78
2024/03/10 04:46:29;;;;;;;33.85;30.15;;;;;;;7.49;71.43;96353.09;5074062;28;20471;-77
2024/03/10 04:48:57;;;;;;;34.08;30.35;;;;;;;7.39;71.08;96347.72;5075745;28;20097;-77
2024/03/10 04:51:25;;;;;;;34.20;30.17;;;;;;;7.46;70.42;96345.59;5069506;28;20032;-77
2024/03/10 04:53:51;;;;;;;34.92;30.67;;;;;;;7.31;71.21;96324.16;5069979;28;20059;-77
2024/03/10 04:56:16;;;;;;;37.38;31.65;;;;;;;7.45;70.81;96333.25;5086362;28;20475;-77
2024/03/10 04:58:42;;;;;;;34.28;29.60;;;;;;;7.31;70.94;96329.50;5085005;22;20114;-76
2024/03/10 05:01:09;;;;;;;32.60;29.10;;;;;;;7.44;71.35;96340.50;5027004;28;20032;-76
2024/03/10 05:03:38;;;;;;;32.67;29.17;;;;;;;7.37;71.51;96331.94;5039136;28;20028;-75
2024/03/10 05:06:05;;;;;;;31.75;28.35;;;;;;;7.34;71.27;96329.00;5050151;28;20419;-76
2024/03/10 05:08:31;;;;;;;33.20;28.75;;;;;;;7.36;71.08;96332.19;5022326;28;20128;-74
2024/03/10 05:10:56;;;;;;;35.38;29.77;;;;;;;7.15;70.80;96296.59;5029151;28;20054;-75
2024/03/10 05:13:22;;;;;;;34.95;29.45;;;;;;;7.24;70.68;96299.53;5040233;28;20110;-73
2024/03/10 05:15:48;;;;;;;33.53;29.90;;;;;;;7.31;71.09;96313.44;5055519;28;20029;-73
2024/03/10 05:18:14;;;;;;;35.55;30.70;;;;;;;7.29;70.71;96318.28;5055420;28;20094;-73
2024/03/10 05:20:40;;;;;;;37.72;31.40;;;;;;;7.15;71.61;96293.13;5035974;28;20032;-73
2024/03/10 05:23:05;;;;;;;34.67;30.58;;;;;;;6.97;71.58;96295.28;5045865;28;20144;-73
2024/03/10 05:25:31;;;;;;;35.28;31.17;;;;;;;6.91;71.76;96282.97;5022932;28;20115;-74
2024/03/10 05:27:56;;;;;;;32.85;29.35;;;;;;;6.93;72.10;96280.81;5055416;28;20475;-74
2024/03/10 05:30:21;;;;;;;33.78;29.63;;;;;;;7.05;72.23;96272.53;5055318;28;20032;-74
2024/03/10 05:32:47;;;;;;;32.30;28.83;;;;;;;6.91;72.43;96266.91;5021757;28;20044;-74
2024/03/10 05:35:14;;;;;;;31.80;28.30;;;;;;;7.04;72.43;96264.78;5018406;28;20136;-73
2024/03/10 05:37:41;;;;;;;33.28;28.65;;;;;;;7.01;72.23;96259.94;5038539;28;20086;-76
2024/03/10 05:40:08;;;;;;;30.60;26.92;;;;;;;7.03;72.04;96281.88;5038318;28;20029;-76
2024/03/10 05:42:33;;;;;;;30.92;27.33;;;;;;;7.06;72.14;96278.69;5037748;28;20062;-76
2024/03/10 05:45:02;;;;;;;30.90;27.60;;;;;;;7.00;72.54;96282.44;5069586;28;20025;-76
2024/03/10 05:47:29;;;;;;;72.32;54.17;;;;;;;6.69;71.79;96214.75;5017252;28;20033;-74
2024/03/10 05:49:55;;;;;;;30.80;27.45;;;;;;;7.03;72.22;96284.56;5030549;28;20054;-74
2024/03/10 05:52:21;;;;;;;29.08;25.98;;;;;;;7.19;71.92;96294.22;5027937;28;20029;-74
2024/03/10 05:54:47;;;;;;;29.15;25.70;;;;;;;7.13;72.56;96300.63;5026699;28;20448;-74
2024/03/10 05:57:13;;;;;;;29.67;26.50;;;;;;;7.12;72.49;96289.09;5037000;28;20479;-74
2024/03/10 05:59:38;;;;;;;29.13;25.90;;;;;;;7.19;72.19;96299.56;5021356;28;20066;-74
2024/03/10 06:02:03;;;;;;;28.92;25.92;;;;;;;7.16;71.75;96284.03;5035159;28;20182;-75
2024/03/10 06:04:30;;;;;;;26.73;23.85;;;;;;;7.35;72.02;96309.19;5034523;28;20058;-75
2024/03/10 06:06:56;;;;;;;28.63;25.50;;;;;;;7.39;71.64;96304.88;5022912;28;20066;-76
2024/03/10 06:09:21;;;;;;;26.60;23.73;;;;;;;7.30;71.21;96279.75;5038302;28;20016;-76
2024/03/10 06:11:46;;;;;;;26.58;23.63;;;;;;;7.33;71.14;96276.50;5021570;28;20142;-75
2024/03/10 06:14:12;;;;;;;26.80;23.63;;;;;;;7.33;70.67;96289.88;5035174;28;20078;-76
2024/03/10 06:16:37;;;;;;;25.92;22.98;;;;;;;7.45;71.15;96290.41;5021473;28;20036;-76
2024/03/10 06:26:57;;;;;;;24.98;22.33;;;;;;;7.70;70.56;96285.00;5062148;28;20507;-76
2024/03/10 06:29:24;;;;;;;25.25;22.55;;;;;;;7.70;70.08;96297.59;5037798;28;20062;-75
2024/03/10 06:31:50;;;;;;;26.52;23.52;;;;;;;7.78;69.64;96313.91;5020660;28;20040;-75
2024/03/10 06:34:16;;;;;;;25.60;22.85;;;;;;;7.68;69.52;96304.00;5034383;28;20021;-76
2024/03/10 06:36:41;;;;;;;25.67;22.98;;;;;;;7.60;69.79;96268.94;5035481;28;20047;-75
2024/03/10 06:39:08;;;;;;;24.55;21.50;;;;;;;7.74;70.03;96286.06;5071723;28;20115;-76
2024/03/10 06:41:34;;;;;;;22.95;20.50;;;;;;;7.94;68.72;96295.88;5039058;28;20111;-76
2024/03/10 06:44:00;;;;;;;26.38;23.42;;;;;;;7.75;69.66;96279.59;5039070;28;20048;-76
2024/03/10 06:46:26;;;;;;;23.67;21.10;;;;;;;7.84;70.08;96295.94;5036067;28;20065;-76
2024/03/10 06:48:52;;;;;;;24.63;21.63;;;;;;;7.92;69.17;96293.47;5070709;28;20021;-76
2024/03/10 06:51:19;;;;;;;24.58;21.90;;;;;;;7.67;69.39;96266.78;5018653;28;20563;-77
2024/03/10 06:53:45;;;;;;;23.73;21.23;;;;;;;7.95;69.40;96292.94;5055955;28;20470;-76
2024/03/10 06:56:10;;;;;;;23.45;20.95;;;;;;;7.85;69.05;96266.19;5038286;28;20083;-76
2024/03/10 06:58:35;;;;;;;24.98;22.30;;;;;;;8.03;69.11;96300.41;5022648;28;20111;-77
2024/03/10 07:01:05;;;;;;;23.58;21.08;;;;;;;8.08;68.58;96278.94;5025502;28;20093;-76
2024/03/10 07:03:32;;;;;;;21.85;19.55;;;;;;;7.99;67.10;96267.19;5041676;28;20035;-77
2024/03/10 07:06:00;;;;;;;24.02;21.42;;;;;;;8.06;68.01;96267.69;5042238;28;20028;-76
2024/03/10 07:08:26;;;;;;;23.13;20.60;;;;;;;8.18;68.22;96289.63;5059320;28;20060;-77
2024/03/10 07:10:52;;;;;;;23.25;20.80;;;;;;;8.08;68.67;96273.56;5043758;28;20040;-77
2024/03/10 07:13:18;;;;;;;23.98;21.48;;;;;;;8.16;68.36;96281.06;5024946;28;20082;-76
2024/03/10 07:15:46;;;;;;;26.67;23.80;;;;;;;8.14;68.57;96285.91;5025268;28;20032;-77
2024/03/10 07:18:12;;;;;;;24.08;21.58;;;;;;;8.21;68.62;96307.81;5044220;28;20047;-77
2024/03/10 07:20:39;;;;;;;26.42;22.55;;;;;;;8.22;68.37;96298.72;5044947;28;20028;-76
2024/03/10 07:23:07;;;;;;;34.00;27.40;;;;;;;8.38;69.01;96320.13;5025784;28;20475;-76
2024/03/10 07:25:33;;;;;;;33.92;28.65;;;;;;;8.46;68.82;96343.69;5031603;28;20036;-76
2024/03/10 07:27:58;;;;;;;25.35;22.60;;;;;;;8.36;68.83;96320.38;5026131;28;20036;-76
2024/03/10 07:30:24;;;;;;;25.08;22.40;;;;;;;8.42;68.51;96334.59;5022620;28;20039;-76
2024/03/10 07:32:49;;;;;;;25.20;21.95;;;;;;;8.46;68.33;96327.59;5043752;28;20056;-77
2024/03/10 07:35:16;;;;;;;22.83;20.42;;;;;;;8.51;68.36;96339.09;5062762;28;20344;-77
2024/03/10 07:37:42;;;;;;;23.33;20.67;;;;;;;8.45;68.46;96301.88;5041925;28;20029;-76
2024/03/10 07:40:16;;;;;;;23.13;20.30;;;;;;;8.55;67.47;96307.16;5041251;28;20024;-76
2024/03/10 07:42:48;;;;;;;22.70;20.30;;;;;;;8.65;67.30;96312.47;5042046;28;20071;-77
2024/03/10 07:45:17;;;;;;;21.15;18.98;;;;;;;8.68;67.84;96306.53;5024737;28;20479;-76
2024/03/10 07:47:45;;;;;;;22.95;19.65;;;;;;;8.79;66.89;96313.44;5042019;28;20067;-77
2024/03/10 07:50:11;;;;;;;21.67;19.35;;;;;;;8.80;66.43;96309.66;5058682;28;20036;-77
2024/03/10 07:52:39;;;;;;;21.55;19.25;;;;;;;8.91;66.64;96311.22;5032759;28;20063;-77
2024/03/10 07:55:05;;;;;;;20.98;18.63;;;;;;;8.83;66.40;96301.88;5055641;28;20106;-77
2024/03/10 07:57:33;;;;;;;25.13;22.50;;;;;;;9.06;66.69;96316.44;5036226;28;20471;-77
2024/03/10 07:59:59;;;;;;;23.55;20.00;;;;;;;8.96;66.67;96293.16;5040456;28;20115;-77
2024/03/10 08:02:25;;;;;;;25.27;22.23;;;;;;;8.99;66.22;96311.41;5024944;28;20780;-77
2024/03/10 08:04:51;;;;;;;31.88;26.40;;;;;;;8.88;66.04;96284.91;5057674;28;20081;-77
2024/03/10 08:07:17;;;;;;;23.60;21.08;;;;;;;9.06;66.21;96305.72;5037823;28;20492;-77
2024/03/10 08:09:42;;;;;;;22.45;20.13;;;;;;;9.11;66.11;96292.25;5048904;28;20068;-77
2024/03/10 08:12:08;;;;;;;22.55;19.60;;;;;;;9.12;65.92;96296.56;5024062;28;20036;-76
2024/03/10 08:14:35;;;;;;;26.60;23.38;;;;;;;9.26;65.49;96308.25;5044225;28;20218;-76
2024/03/10 08:17:01;;;;;;;20.20;18.10;;;;;;;9.29;64.95;96275.44;5027088;28;20017;-77
2024/03/10 08:19:26;;;;;;;20.10;18.13;;;;;;;9.34;64.76;96280.75;5042253;28;20408;-77
2024/03/10 08:21:51;;;;;;;21.05;18.88;;;;;;;9.51;64.80;96289.19;5033477;28;20028;-77
2024/03/10 08:24:17;;;;;;;20.10;18.08;;;;;;;9.46;63.91;96269.63;5056803;28;20047;-77
2024/03/10 08:26:43;;;;;;;18.58;16.65;;;;;;;9.61;63.53;96272.94;5060062;28;20043;-76
2024/03/10 08:29:08;;;;;;;18.20;15.63;;;;;;;9.81;63.17;96281.88;5045513;28;20078;-77
2024/03/10 08:31:34;;;;;;;18.13;16.27;;;;;;;9.57;63.15;96218.19;5088875;28;20032;-77
2024/03/10 08:33:59;;;;;;;18.55;16.65;;;;;;;9.87;63.05;96259.25;5058260;28;20046;-77
2024/03/10 08:36:25;;;;;;;18.08;16.17;;;;;;;10.05;63.01;96269.25;5025207;28;20071;-77
2024/03/10 08:38:51;;;;;;;19.00;16.88;;;;;;;10.03;62.56;96247.22;5040886;28;20123;-77
2024/03/10 08:41:16;;;;;;;20.08;16.10;;;;;;;9.69;62.24;96194.41;5042345;28;20042;-77
2024/03/10 08:43:41;;;;;;;18.77;16.77;;;;;;;10.01;62.78;96250.16;5030383;28;20502;-77
2024/03/10 08:46:07;;;;;;;16.73;15.02;;;;;;;10.22;62.32;96264.22;5057582;28;20024;-77
2024/03/10 08:48:32;;;;;;;19.30;16.38;;;;;;;10.27;62.22;96258.75;5039597;28;20496;-77
2024/03/10 08:50:58;;;;;;;17.05;15.20;;;;;;;10.30;62.16;96258.97;5042744;28;20025;-77
2024/03/10 08:53:24;;;;;;;17.65;14.75;;;;;;;10.36;61.75;96246.28;5028675;28;20044;-77
2024/03/10 08:55:50;;;;;;;19.13;17.13;;;;;;;10.52;61.37;96260.31;5043166;28;20029;-77
2024/03/10 08:58:17;;;;;;;17.98;16.17;;;;;;;10.41;61.78;96244.28;5024539;28;20036;-77
2024/03/10 09:00:43;;;;;;;19.00;16.80;;;;;;;10.48;61.79;96249.31;5040572;28;20028;-77
2024/03/10 09:03:09;;;;;;;17.00;15.15;;;;;;;10.73;61.45;96267.00;5039343;28;20029;-77
2024/03/10 09:05:35;;;;;;;18.45;16.40;;;;;;;10.57;61.59;96231.41;5021816;28;20032;-77
2024/03/10 09:08:00;;;;;;;19.00;16.13;;;;;;;10.84;60.95;96254.97;5025348;28;20032;-77
2024/03/10 09:10:27;;;;;;;18.70;16.73;;;;;;;10.76;60.80;96245.66;5022583;28;20021;-77
2024/03/10 09:12:53;;;;;;;17.38;15.60;;;;;;;10.71;60.67;96237.66;5058421;28;20036;-77
2024/03/10 09:15:19;;;;;;;17.00;15.20;;;;;;;10.87;60.72;96257.06;5038963;28;20031;-77
2024/03/10 09:17:45;;;;;;;17.13;15.32;;;;;;;11.00;60.40;96251.75;5072340;28;20033;-78
2024/03/10 09:20:12;;;;;;;16.77;14.90;;;;;;;11.02;60.36;96248.75;5039775;28;20029;-77
2024/03/10 09:22:42;;;;;;;15.80;14.13;;;;;;;11.09;59.36;96249.16;5056358;28;20583;-77
2024/03/10 09:25:20;;;;;;;15.70;14.10;;;;;;;11.15;59.62;96231.03;5022999;28;20051;-77
2024/03/10 09:27:45;;;;;;;15.25;13.52;;;;;;;11.09;59.48;96196.09;5025877;28;20033;-77
2024/03/10 09:30:13;;;;;;;16.38;14.68;;;;;;;11.23;59.21;96200.69;5056710;28;20021;-77
2024/03/10 09:32:38;;;;;;;15.80;14.20;;;;;;;11.04;58.63;96171.94;5022869;28;20063;-77
2024/03/10 09:35:04;;;;;;;16.95;13.40;;;;;;;11.00;58.20;96186.28;5039823;28;20035;-78
2024/03/10 09:37:30;;;;;;;14.77;13.27;;;;;;;11.24;58.19;96202.31;5038677;28;20032;-77
2024/03/10 09:39:55;;;;;;;14.82;13.20;;;;;;;11.35;58.90;96204.50;5055221;28;20024;-77
2024/03/10 09:42:21;;;;;;;15.73;14.02;;;;;;;11.43;59.35;96217.31;5032900;28;20024;-77
2024/03/10 09:44:47;;;;;;;14.98;13.20;;;;;;;11.24;58.71;96173.47;5049343;28;20291;-77
2024/03/10 09:47:18;;;;;;;14.70;13.20;;;;;;;11.59;58.09;96207.03;5025188;28;20062;-77
2024/03/10 09:49:44;;;;;;;15.70;13.98;;;;;;;11.48;58.79;96192.94;5041055;28;20040;-77
2024/03/10 09:52:09;;;;;;;15.40;13.77;;;;;;;11.62;58.05;96204.53;5023743;28;20035;-77
2024/03/10 09:54:35;;;;;;;14.63;13.05;;;;;;;11.55;57.77;96187.16;5058130;28;20037;-77
2024/03/10 09:57:00;;;;;;;15.10;13.55;;;;;;;11.53;59.12;96173.97;5040640;28;20025;-77
2024/03/10 09:59:43;;;;;;;14.52;12.95;;;;;;;11.69;58.18;96204.19;5048374;28;20038;-77
2024/03/10 10:02:42;;;;;;;14.52;13.02;;;;;;;11.84;59.22;96206.56;5041283;28;20046;-77
2024/03/10 10:05:17;;;;;;;15.27;13.68;;;;;;;11.80;59.09;96200.16;5042398;28;20067;-77
2024/03/10 10:07:44;;;;;;;15.32;13.65;;;;;;;11.99;59.23;96181.97;5037041;28;20142;-76
2024/03/10 10:10:10;;;;;;;15.05;13.45;;;;;;;12.16;58.17;96195.63;5036609;28;20056;-77
2024/03/10 10:12:35;;;;;;;16.40;14.27;;;;;;;12.29;58.67;96212.88;5035299;28;20064;-77
2024/03/10 10:15:03;;;;;;;16.48;13.95;;;;;;;12.30;58.64;96196.38;5040021;28;20032;-77
2024/03/10 10:17:32;;;;;;;13.98;11.43;;;;;;;12.38;57.00;96203.78;5055219;28;20037;-78
2024/03/10 10:19:57;;;;;;;14.75;12.93;;;;;;;12.37;56.64;96215.66;5039248;28;20544;-77
2024/03/10 10:22:23;;;;;;;16.27;13.07;;;;;;;12.32;57.03;96191.47;5038521;28;20036;-77
2024/03/10 10:25:03;;;;;;;13.95;12.48;;;;;;;12.49;56.52;96212.44;5071272;28;20027;-76
2024/03/10 10:27:28;;;;;;;15.15;13.35;;;;;;;12.38;56.51;96206.47;5072000;28;20043;-75
2024/03/10 10:29:54;;;;;;;14.48;12.50;;;;;;;12.54;56.34;96215.00;5036772;28;20028;-78
2024/03/10 10:32:21;;;;;;;13.88;11.70;;;;;;;12.51;55.85;96193.25;5039366;28;20056;-76
2024/03/10 10:34:48;;;;;;;14.40;11.98;;;;;;;12.64;56.33;96200.47;5075608;28;20024;-76
2024/03/10 10:37:14;;;;;;;13.18;11.85;;;;;;;12.60;55.74;96186.00;5054999;28;20435;-77
2024/03/10 10:39:41;;;;;;;12.48;11.18;;;;;;;12.61;55.58;96188.38;5035231;28;20039;-76
2024/03/10 10:42:07;;;;;;;12.90;11.60;;;;;;;12.75;54.86;96199.94;5075047;28;20102;-77
2024/03/10 10:44:34;;;;;;;13.15;11.85;;;;;;;12.65;55.44;96161.59;5035790;28;20024;-77
2024/03/10 10:47:01;;;;;;;13.27;11.88;;;;;;;12.82;55.04;96156.28;5037160;28;20044;-77
2024/03/10 10:49:27;;;;;;;12.32;10.88;;;;;;;12.71;54.50;96133.34;5045369;28;20029;-77
2024/03/10 10:51:56;;;;;;;13.77;11.35;;;;;;;12.85;55.18;96150.25;5037223;28;20536;-77
2024/03/10 10:54:22;;;;;;;15.00;12.90;;;;;;;12.97;55.33;96164.81;5071334;28;20029;-77
2024/03/10 10:56:54;;;;;;;12.05;10.75;;;;;;;13.04;54.54;96148.16;5055313;28;20032;-77
2024/03/10 10:59:24;;;;;;;12.32;11.00;;;;;;;12.95;54.65;96118.38;5040058;23;20044;-75
2024/03/10 11:01:56;;;;;;;17.55;12.27;;;;;;;13.02;54.29;96128.75;5037366;28;20387;-75
2024/03/10 11:04:26;;;;;;;12.77;11.48;;;;;;;13.00;54.27;96125.53;5037422;28;20043;-76
2024/03/10 11:06:55;;;;;;;12.10;10.80;;;;;;;13.09;53.72;96113.69;5018754;28;20059;-76
2024/03/10 11:09:28;;;;;;;11.93;10.73;;;;;;;13.18;54.13;96119.16;5045796;28;20076;-76
2024/03/10 11:11:54;;;;;;;12.05;10.75;;;;;;;13.32;53.13;96119.06;5028310;28;20049;-77
2024/03/10 11:14:24;;;;;;;12.43;11.00;;;;;;;13.20;53.61;96103.44;5037519;28;20483;-76
2024/03/10 11:16:49;;;;;;;11.77;10.55;;;;;;;13.23;53.49;96097.41;5025875;28;20046;-76
2024/03/10 11:19:21;;;;;;;11.80;10.63;;;;;;;13.36;53.94;96110.00;5044406;28;20025;-77
2024/03/10 11:21:50;;;;;;;13.48;11.25;;;;;;;13.49;53.23;96111.78;5033787;28;20029;-75
2024/03/10 11:24:27;;;;;;;11.30;10.15;;;;;;;13.37;53.67;96118.94;5035336;28;20108;-76
2024/03/10 11:27:19;;;;;;;11.65;10.43;;;;;;;13.31;53.60;96110.16;5049189;28;20480;-77
2024/03/10 11:29:45;;;;;;;11.07;9.95;;;;;;;13.50;53.01;96118.81;5047415;28;20037;-76
2024/03/10 11:32:33;;;;;;;11.43;10.25;;;;;;;13.62;53.28;96124.41;5046466;28;20425;-76
2024/03/10 11:35:09;;;;;;;11.05;9.82;;;;;;;13.78;51.58;96144.50;5051856;28;20471;-76
2024/03/10 11:37:36;;;;;;;12.77;10.65;;;;;;;13.62;52.83;96147.97;5026933;28;20127;-76
2024/03/10 11:40:04;;;;;;;11.77;10.10;;;;;;;13.71;52.69;96141.47;5015926;28;20044;-76
2024/03/10 11:42:33;;;;;;;10.45;9.27;;;;;;;13.72;52.91;96159.28;5000847;28;20045;-76
2024/03/10 11:45:00;;;;;;;10.95;9.85;;;;;;;13.81;53.84;96160.13;5001545;28;20029;-76